Time,TemperatureF,DewpointF,PressureIn,WindDirection,WindDirectionDegrees,WindSpeedMPH,WindSpeedGustMPH,Humidity,HourlyPrecipIn,Conditions,Clouds,dailyrainin,SoftwareType,DateUTC
2013-07-09 00:02:00,66.0,63.0,-100.00,North,-999,0.0,-999.0,90,0.03,,,0.27,,2013-07-09 04:02:00,
2013-07-09 00:11:00,66.0,63.0,-100.00,North,-999,0.0,-999.0,90,0.03,,,0.27,,2013-07-09 04:11:00,
2013-07-09 00:22:00,66.0,63.0,-100.00,North,-999,0.0,-999.0,90,0.03,,,0.27,,2013-07-09 04:22:00,
2013-07-09 00:30:00,66.0,64.0,-100.00,North,-999,-999.0,-999.0,92,0.01,,,0.28,,2013-07-09 04:30:00,
2013-07-09 00:34:00,66.0,63.0,-100.00,North,-999,0.0,-999.0,90,0.03,,,0.27,,2013-07-09 04:34:00,
2013-07-09 00:43:00,66.0,63.0,-100.00,North,-999,0.0,-999.0,90,0.03,,,0.27,,2013-07-09 04:43:00,
2013-07-09 01:12:00,66.0,64.0,-100.00,North,-999,-999.0,-999.0,92,0.01,,,0.28,,2013-07-09 05:12:00,
2013-07-09 01:22:00,66.0,64.0,-100.00,North,-999,-999.0,-999.0,92,0.01,,,0.28,,2013-07-09 05:22:00,
2013-07-09 02:01:00,65.0,62.0,-100.00,North,-999,-999.0,-999.0,91,-99.99,,,0.29,,2013-07-09 06:01:00,
2013-07-09 02:11:00,65.0,62.0,-100.00,North,-999,-999.0,-999.0,91,-99.99,,,0.29,,2013-07-09 06:11:00,
2013-07-09 02:22:00,65.0,62.0,-100.00,North,-999,-999.0,-999.0,91,-99.99,,,0.29,,2013-07-09 06:22:00,
2013-07-09 02:34:00,65.0,62.0,-100.00,North,-999,-999.0,-999.0,91,-99.99,,,0.29,,2013-07-09 06:34:00,
2013-07-09 02:43:00,65.0,62.0,-100.00,North,-999,-999.0,-999.0,91,-99.99,,,0.29,,2013-07-09 06:43:00,
2013-07-09 03:02:00,66.0,64.0,-100.00,North,-999,0.0,-999.0,92,0.01,,,0.30,,2013-07-09 07:02:00,
2013-07-09 03:12:00,66.0,64.0,-100.00,North,-999,0.0,-999.0,92,0.01,,,0.30,,2013-07-09 07:12:00,
2013-07-09 03:22:00,66.0,64.0,-100.00,North,-999,0.0,-999.0,92,0.01,,,0.30,,2013-07-09 07:22:00,
2013-07-09 03:34:00,66.0,64.0,-100.00,North,-999,0.0,-999.0,92,0.01,,,0.30,,2013-07-09 07:34:00,
2013-07-09 03:43:00,66.0,64.0,-100.00,North,-999,0.0,-999.0,92,0.01,,,0.30,,2013-07-09 07:43:00,
2013-07-09 04:01:00,66.0,64.0,-100.00,North,-999,0.0,-999.0,92,0.02,,,0.31,,2013-07-09 08:01:00,
2013-07-09 04:11:00,66.0,64.0,-100.00,North,-999,0.0,-999.0,92,0.02,,,0.31,,2013-07-09 08:11:00,
2013-07-09 04:22:00,66.0,64.0,-100.00,North,-999,0.0,-999.0,92,0.02,,,0.31,,2013-07-09 08:22:00,
2013-07-09 04:33:00,66.0,64.0,-100.00,North,-999,0.0,-999.0,92,0.02,,,0.31,,2013-07-09 08:33:00,
2013-07-09 04:43:00,66.0,64.0,-100.00,North,-999,0.0,-999.0,92,0.02,,,0.31,,2013-07-09 08:43:00,
2013-07-09 05:12:00,66.0,64.0,-100.00,North,-999,-999.0,-999.0,92,0.00,,,0.31,,2013-07-09 09:12:00,
2013-07-09 05:22:00,66.0,64.0,-100.00,North,-999,-999.0,-999.0,92,0.00,,,0.31,,2013-07-09 09:22:00,
2013-07-09 05:34:00,66.0,64.0,-100.00,North,-999,-999.0,-999.0,92,0.00,,,0.31,,2013-07-09 09:34:00,
2013-07-09 05:42:00,66.0,64.0,-100.00,North,-999,-999.0,-999.0,92,0.00,,,0.31,,2013-07-09 09:42:00,
2013-07-09 06:11:00,66.0,64.0,-100.00,North,-999,-999.0,-999.0,93,0.00,,,0.31,,2013-07-09 10:11:00,
2013-07-09 06:22:00,66.0,64.0,-100.00,North,-999,-999.0,-999.0,93,0.00,,,0.31,,2013-07-09 10:22:00,
2013-07-09 06:34:00,66.0,64.0,-100.00,North,-999,-999.0,-999.0,93,0.00,,,0.31,,2013-07-09 10:34:00,
2013-07-09 06:42:00,66.0,64.0,-100.00,North,-999,-999.0,-999.0,93,0.00,,,0.31,,2013-07-09 10:42:00,
2013-07-09 07:02:00,67.0,64.0,-100.00,North,-999,-999.0,-999.0,91,0.00,,,0.31,,2013-07-09 11:02:00,
2013-07-09 07:11:00,67.0,64.0,-100.00,North,-999,-999.0,-999.0,91,0.00,,,0.31,,2013-07-09 11:11:00,
2013-07-09 07:22:00,67.0,64.0,-100.00,North,-999,-999.0,-999.0,91,0.00,,,0.31,,2013-07-09 11:22:00,
2013-07-09 07:34:00,67.0,64.0,-100.00,North,-999,-999.0,-999.0,91,0.00,,,0.31,,2013-07-09 11:34:00,
2013-07-09 07:42:00,67.0,64.0,-100.00,North,-999,-999.0,-999.0,91,0.00,,,0.31,,2013-07-09 11:42:00,
2013-07-09 08:02:00,69.0,65.0,-100.00,North,-999,0.0,-999.0,87,0.00,,,-99.99,,2013-07-09 12:02:00,
2013-07-09 08:12:00,69.0,65.0,-100.00,North,-999,0.0,-999.0,87,0.00,,,-99.99,,2013-07-09 12:12:00,
2013-07-09 08:22:00,69.0,65.0,-100.00,North,-999,0.0,-999.0,87,0.00,,,-99.99,,2013-07-09 12:22:00,
2013-07-09 08:33:00,69.0,65.0,-100.00,North,-999,0.0,-999.0,87,0.00,,,-99.99,,2013-07-09 12:33:00,
2013-07-09 08:43:00,69.0,65.0,-100.00,North,-999,0.0,-999.0,87,0.00,,,-99.99,,2013-07-09 12:43:00,
2013-07-09 09:11:00,70.0,65.0,-100.00,North,-999,0.0,-999.0,85,0.00,,,0.31,,2013-07-09 13:11:00,
2013-07-09 09:22:00,70.0,65.0,-100.00,North,-999,0.0,-999.0,85,0.00,,,0.31,,2013-07-09 13:22:00,
2013-07-09 09:33:00,70.0,65.0,-100.00,North,-999,0.0,-999.0,85,0.00,,,0.31,,2013-07-09 13:33:00,
2013-07-09 09:43:00,70.0,65.0,-100.00,North,-999,0.0,-999.0,85,0.00,,,0.31,,2013-07-09 13:43:00,
2013-07-09 10:11:00,70.0,65.0,-100.00,North,-999,0.0,-999.0,83,0.00,,,0.31,,2013-07-09 14:11:00,
2013-07-09 10:22:00,70.0,65.0,-100.00,North,-999,0.0,-999.0,83,0.00,,,0.31,,2013-07-09 14:22:00,
2013-07-09 10:34:00,70.0,65.0,-100.00,North,-999,0.0,-999.0,83,0.00,,,0.31,,2013-07-09 14:34:00,
2013-07-09 10:43:00,70.0,65.0,-100.00,North,-999,0.0,-999.0,83,0.00,,,0.31,,2013-07-09 14:43:00,
2013-07-09 11:12:00,71.0,65.0,-100.00,North,-999,-999.0,-999.0,80,0.00,,,0.31,,2013-07-09 15:12:00,
2013-07-09 11:22:00,71.0,65.0,-100.00,North,-999,-999.0,-999.0,80,0.00,,,0.31,,2013-07-09 15:22:00,
2013-07-09 11:34:00,71.0,65.0,-100.00,North,-999,-999.0,-999.0,80,0.00,,,0.31,,2013-07-09 15:34:00,
2013-07-09 11:43:00,71.0,65.0,-100.00,North,-999,-999.0,-999.0,80,0.00,,,0.31,,2013-07-09 15:43:00,
2013-07-09 12:45:00,73.0,64.0,-100.00,North,-999,0.0,-999.0,74,-99.99,,,0.31,,2013-07-09 16:45:00,
2013-07-09 13:11:00,73.0,64.0,-100.00,North,-999,0.0,-999.0,74,-99.99,,,0.31,,2013-07-09 17:11:00,
2013-07-09 13:22:00,73.0,64.0,-100.00,North,-999,0.0,-999.0,74,-99.99,,,0.31,,2013-07-09 17:22:00,
2013-07-09 13:35:00,73.0,64.0,-100.00,North,-999,0.0,-999.0,74,-99.99,,,0.31,,2013-07-09 17:35:00,
2013-07-09 14:11:00,76.0,64.0,-100.00,North,-999,-999.0,-999.0,66,0.00,,,0.31,,2013-07-09 18:11:00,
2013-07-09 14:22:00,76.0,64.0,-100.00,North,-999,-999.0,-999.0,66,0.00,,,0.31,,2013-07-09 18:22:00,
2013-07-09 14:32:00,76.0,64.0,-100.00,North,-999,-999.0,-999.0,66,0.00,,,0.31,,2013-07-09 18:32:00,
2013-07-09 14:43:00,76.0,64.0,-100.00,North,-999,-999.0,-999.0,66,0.00,,,0.31,,2013-07-09 18:43:00,
2013-07-09 15:01:00,75.0,65.0,-100.00,North,-999,0.0,-999.0,70,0.00,,,0.31,,2013-07-09 19:01:00,
2013-07-09 15:11:00,75.0,65.0,-100.00,North,-999,0.0,-999.0,70,0.00,,,0.31,,2013-07-09 19:11:00,
2013-07-09 15:22:00,75.0,65.0,-100.00,North,-999,0.0,-999.0,70,0.00,,,0.31,,2013-07-09 19:22:00,
2013-07-09 15:33:00,75.0,65.0,-100.00,North,-999,0.0,-999.0,70,0.00,,,0.31,,2013-07-09 19:33:00,
2013-07-09 15:42:00,75.0,65.0,-100.00,North,-999,0.0,-999.0,70,0.00,,,0.31,,2013-07-09 19:42:00,
2013-07-09 16:02:00,76.0,66.0,-100.00,North,-999,-999.0,-999.0,71,0.00,,,0.31,,2013-07-09 20:02:00,
2013-07-09 16:11:00,76.0,66.0,-100.00,North,-999,-999.0,-999.0,71,0.00,,,0.31,,2013-07-09 20:11:00,
2013-07-09 16:22:00,76.0,66.0,-100.00,North,-999,-999.0,-999.0,71,0.00,,,0.31,,2013-07-09 20:22:00,
2013-07-09 16:32:00,76.0,66.0,-100.00,North,-999,-999.0,-999.0,71,0.00,,,0.31,,2013-07-09 20:32:00,
2013-07-09 16:43:00,76.0,66.0,-100.00,North,-999,-999.0,-999.0,71,0.00,,,0.31,,2013-07-09 20:43:00,
2013-07-09 17:01:00,75.0,66.0,-100.00,North,-999,0.0,-999.0,74,0.00,,,0.31,,2013-07-09 21:01:00,
2013-07-09 17:11:00,75.0,66.0,-100.00,North,-999,0.0,-999.0,74,0.00,,,0.31,,2013-07-09 21:11:00,
2013-07-09 17:22:00,75.0,66.0,-100.00,North,-999,0.0,-999.0,74,0.00,,,0.31,,2013-07-09 21:22:00,
2013-07-09 17:32:00,75.0,66.0,-100.00,North,-999,0.0,-999.0,74,0.00,,,0.31,,2013-07-09 21:32:00,
2013-07-09 17:42:00,75.0,66.0,-100.00,North,-999,0.0,-999.0,74,0.00,,,0.31,,2013-07-09 21:42:00,
2013-07-09 18:01:00,73.0,66.0,-100.00,North,-999,0.0,-999.0,78,0.00,,,0.27,,2013-07-09 22:01:00,
2013-07-09 18:11:00,73.0,66.0,-100.00,North,-999,0.0,-999.0,78,0.00,,,0.27,,2013-07-09 22:11:00,
2013-07-09 18:22:00,73.0,66.0,-100.00,North,-999,0.0,-999.0,78,0.00,,,0.27,,2013-07-09 22:22:00,
2013-07-09 18:33:00,73.0,66.0,-100.00,North,-999,0.0,-999.0,78,0.00,,,0.27,,2013-07-09 22:33:00,
2013-07-09 18:42:00,73.0,66.0,-100.00,North,-999,0.0,-999.0,78,0.00,,,0.27,,2013-07-09 22:42:00,
2013-07-09 19:02:00,71.0,65.0,-100.00,North,-999,-999.0,-999.0,82,0.00,,,0.19,,2013-07-09 23:02:00,
2013-07-09 19:12:00,71.0,65.0,-100.00,North,-999,-999.0,-999.0,82,0.00,,,0.19,,2013-07-09 23:12:00,
2013-07-09 19:22:00,71.0,65.0,-100.00,North,-999,-999.0,-999.0,82,0.00,,,0.19,,2013-07-09 23:22:00,
2013-07-09 19:33:00,71.0,65.0,-100.00,North,-999,-999.0,-999.0,82,0.00,,,0.19,,2013-07-09 23:33:00,
2013-07-09 19:43:00,71.0,65.0,-100.00,North,-999,-999.0,-999.0,82,0.00,,,0.19,,2013-07-09 23:43:00,
2013-07-09 20:01:00,71.0,65.0,-100.00,North,-999,0.0,-999.0,80,0.00,,,0.14,,2013-07-10 00:01:00,
2013-07-09 20:11:00,71.0,65.0,-100.00,North,-999,0.0,-999.0,80,0.00,,,0.14,,2013-07-10 00:11:00,
2013-07-09 20:22:00,71.0,65.0,-100.00,North,-999,0.0,-999.0,80,0.00,,,0.14,,2013-07-10 00:22:00,
2013-07-09 20:33:00,71.0,65.0,-100.00,North,-999,0.0,-999.0,80,0.00,,,0.14,,2013-07-10 00:33:00,
2013-07-09 20:42:00,71.0,65.0,-100.00,North,-999,0.0,-999.0,80,0.00,,,0.14,,2013-07-10 00:42:00,
2013-07-09 21:11:00,69.0,64.0,-100.00,North,-999,0.0,-999.0,83,0.00,,,0.13,,2013-07-10 01:11:00,
2013-07-09 21:22:00,69.0,64.0,-100.00,North,-999,0.0,-999.0,83,0.00,,,0.13,,2013-07-10 01:22:00,
2013-07-09 21:33:00,69.0,64.0,-100.00,North,-999,0.0,-999.0,83,0.00,,,0.13,,2013-07-10 01:33:00,
2013-07-09 21:43:00,69.0,64.0,-100.00,North,-999,0.0,-999.0,83,0.00,,,0.13,,2013-07-10 01:43:00,
2013-07-09 22:12:00,68.0,64.0,-100.00,North,-999,0.0,-999.0,86,0.00,,,0.12,,2013-07-10 02:12:00,
2013-07-09 22:23:00,68.0,64.0,-100.00,North,-999,0.0,-999.0,86,0.00,,,0.12,,2013-07-10 02:23:00,
2013-07-09 22:34:00,68.0,64.0,-100.00,North,-999,0.0,-999.0,86,0.00,,,0.12,,2013-07-10 02:34:00,
2013-07-09 22:43:00,68.0,64.0,-100.00,North,-999,0.0,-999.0,86,0.00,,,0.12,,2013-07-10 02:43:00,
2013-07-09 23:12:00,68.0,64.0,-100.00,North,-999,-999.0,-999.0,88,0.00,,,0.08,,2013-07-10 03:12:00,
2013-07-09 23:22:00,68.0,64.0,-100.00,North,-999,-999.0,-999.0,88,0.00,,,0.08,,2013-07-10 03:22:00,
2013-07-09 23:32:00,68.0,64.0,-100.00,North,-999,-999.0,-999.0,88,0.00,,,0.08,,2013-07-10 03:32:00,
2013-07-09 23:43:00,68.0,64.0,-100.00,North,-999,-999.0,-999.0,88,0.00,,,0.08,,2013-07-10 03:43:00,